sensor_id;sensor_type;location;lat;lon;timestamp;pressure;altitude;pressure_sealevel;temperature;humidity
73106;BME280;61559;50.476;15.588;2024-02-16T00:01:57;97963.92;;;6.99;98.21
73106;BME280;61559;50.476;15.588;2024-02-16T00:04:28;97957.89;;;6.97;98.20
73106;BME280;61559;50.476;15.588;2024-02-16T00:07:01;97960.71;;;6.96;98.25
73106;BME280;61559;50.476;15.588;2024-02-16T00:09:32;97964.27;;;6.95;98.33
73106;BME280;61559;50.476;15.588;2024-02-16T00:12:04;97967.46;;;6.93;98.18
73106;BME280;61559;50.476;15.588;2024-02-16T00:14:36;97964.27;;;6.92;98.25
73106;BME280;61559;50.476;15.588;2024-02-16T00:17:07;97958.48;;;6.91;98.25
73106;BME280;61559;50.476;15.588;2024-02-16T00:19:40;97957.64;;;6.89;98.46
73106;BME280;61559;50.476;15.588;2024-02-16T00:22:12;97956.58;;;6.87;98.49
73106;BME280;61559;50.476;15.588;2024-02-16T00:24:44;97960.13;;;6.86;98.68
73106;BME280;61559;50.476;15.588;2024-02-16T00:27:16;97957.06;;;6.83;98.87
73106;BME280;61559;50.476;15.588;2024-02-16T00:29:47;97955.79;;;6.83;99.02
73106;BME280;61559;50.476;15.588;2024-02-16T00:32:19;97957.80;;;6.81;99.08
73106;BME280;61559;50.476;15.588;2024-02-16T00:34:50;97958.22;;;6.80;99.13
73106;BME280;61559;50.476;15.588;2024-02-16T00:37:23;97958.09;;;6.79;99.22
73106;BME280;61559;50.476;15.588;2024-02-16T00:39:53;97953.83;;;6.79;99.41
73106;BME280;61559;50.476;15.588;2024-02-16T00:42:24;97949.90;;;6.78;99.57
73106;BME280;61559;50.476;15.588;2024-02-16T00:44:57;97947.48;;;6.79;99.63
73106;BME280;61559;50.476;15.588;2024-02-16T00:47:32;97941.68;;;6.81;99.50
73106;BME280;61559;50.476;15.588;2024-02-16T00:50:05;97938.70;;;6.82;99.36
73106;BME280;61559;50.476;15.588;2024-02-16T00:52:39;97941.35;;;6.83;99.26
73106;BME280;61559;50.476;15.588;2024-02-16T00:55:11;97945.11;;;6.85;99.19
73106;BME280;61559;50.476;15.588;2024-02-16T00:57:43;97945.88;;;6.86;99.09
73106;BME280;61559;50.476;15.588;2024-02-16T01:00:16;97944.59;;;6.86;98.97
73106;BME280;61559;50.476;15.588;2024-02-16T01:02:49;97943.44;;;6.84;98.66
73106;BME280;61559;50.476;15.588;2024-02-16T01:05:20;97940.56;;;6.85;98.73
73106;BME280;61559;50.476;15.588;2024-02-16T01:07:53;97944.96;;;6.86;98.58
73106;BME280;61559;50.476;15.588;2024-02-16T01:10:24;97941.30;;;6.88;98.68
73106;BME280;61559;50.476;15.588;2024-02-16T01:12:56;97940.11;;;6.90;98.68
73106;BME280;61559;50.476;15.588;2024-02-16T01:15:28;97936.16;;;6.91;98.58
73106;BME280;61559;50.476;15.588;2024-02-16T01:18:00;97937.99;;;6.92;98.64
73106;BME280;61559;50.476;15.588;2024-02-16T01:20:34;97939.71;;;6.93;98.73
73106;BME280;61559;50.476;15.588;2024-02-16T01:23:06;97936.91;;;6.92;98.52
73106;BME280;61559;50.476;15.588;2024-02-16T01:25:37;97934.52;;;6.93;98.44
73106;BME280;61559;50.476;15.588;2024-02-16T01:28:08;97930.17;;;6.94;98.45
73106;BME280;61559;50.476;15.588;2024-02-16T01:30:45;97925.90;;;6.93;98.42
73106;BME280;61559;50.476;15.588;2024-02-16T01:33:16;97921.85;;;6.93;98.45
73106;BME280;61559;50.476;15.588;2024-02-16T01:35:48;97919.59;;;6.93;98.43
73106;BME280;61559;50.476;15.588;2024-02-16T01:38:19;97919.09;;;6.92;98.34
73106;BME280;61559;50.476;15.588;2024-02-16T01:40:53;97922.89;;;6.91;98.37
73106;BME280;61559;50.476;15.588;2024-02-16T01:43:24;97922.17;;;6.92;98.45
73106;BME280;61559;50.476;15.588;2024-02-16T01:45:57;97921.52;;;6.90;98.35
73106;BME280;61559;50.476;15.588;2024-02-16T01:48:30;97923.52;;;6.90;98.34
73106;BME280;61559;50.476;15.588;2024-02-16T01:51:01;97925.88;;;6.89;98.38
73106;BME280;61559;50.476;15.588;2024-02-16T01:53:33;97923.64;;;6.88;98.24
73106;BME280;61559;50.476;15.588;2024-02-16T01:56:06;97917.87;;;6.87;98.16
73106;BME280;61559;50.476;15.588;2024-02-16T01:58:38;97916.40;;;6.85;97.93
73106;BME280;61559;50.476;15.588;2024-02-16T02:01:10;97918.30;;;6.84;97.91
73106;BME280;61559;50.476;15.588;2024-02-16T02:03:41;97918.94;;;6.82;97.87
73106;BME280;61559;50.476;15.588;2024-02-16T02:06:13;97918.09;;;6.80;97.79
73106;BME280;61559;50.476;15.588;2024-02-16T02:08:45;97922.55;;;6.78;97.71
73106;BME280;61559;50.476;15.588;2024-02-16T02:11:16;97918.40;;;6.73;97.58
73106;BME280;61559;50.476;15.588;2024-02-16T02:13:48;97915.23;;;6.68;97.46
73106;BME280;61559;50.476;15.588;2024-02-16T02:16:20;97915.27;;;6.63;97.20
73106;BME280;61559;50.476;15.588;2024-02-16T02:18:51;97922.98;;;6.53;96.97
73106;BME280;61559;50.476;15.588;2024-02-16T02:21:23;97921.38;;;6.43;96.84
73106;BME280;61559;50.476;15.588;2024-02-16T02:23:54;97921.90;;;6.34;96.60
73106;BME280;61559;50.476;15.588;2024-02-16T02:26:26;97923.79;;;6.27;96.62
73106;BME280;61559;50.476;15.588;2024-02-16T02:29:07;97921.14;;;6.20;96.58
73106;BME280;61559;50.476;15.588;2024-02-16T02:31:38;97923.68;;;6.14;96.73
73106;BME280;61559;50.476;15.588;2024-02-16T02:34:10;97924.95;;;6.08;96.79
73106;BME280;61559;50.476;15.588;2024-02-16T02:36:42;97919.09;;;6.02;96.71
73106;BME280;61559;50.476;15.588;2024-02-16T02:39:14;97919.79;;;5.96;96.64
73106;BME280;61559;50.476;15.588;2024-02-16T02:41:46;97917.52;;;5.89;96.60
73106;BME280;61559;50.476;15.588;2024-02-16T02:44:17;97916.31;;;5.82;96.34
73106;BME280;61559;50.476;15.588;2024-02-16T02:46:49;97916.23;;;5.77;96.31
73106;BME280;61559;50.476;15.588;2024-02-16T02:49:20;97913.52;;;5.71;96.44
73106;BME280;61559;50.476;15.588;2024-02-16T02:51:52;97920.44;;;5.65;96.43
73106;BME280;61559;50.476;15.588;2024-02-16T02:54:24;97916.52;;;5.60;96.44
73106;BME280;61559;50.476;15.588;2024-02-16T02:56:55;97912.16;;;5.55;96.26
73106;BME280;61559;50.476;15.588;2024-02-16T02:59:27;97905.86;;;5.49;96.27
73106;BME280;61559;50.476;15.588;2024-02-16T03:01:58;97902.41;;;5.44;96.13
73106;BME280;61559;50.476;15.588;2024-02-16T03:04:30;97901.66;;;5.38;96.15
73106;BME280;61559;50.476;15.588;2024-02-16T03:07:02;97904.45;;;5.33;96.08
73106;BME280;61559;50.476;15.588;2024-02-16T03:09:33;97902.16;;;5.27;96.00
73106;BME280;61559;50.476;15.588;2024-02-16T03:12:06;97904.04;;;5.21;95.94
73106;BME280;61559;50.476;15.588;2024-02-16T03:14:38;97907.55;;;5.15;95.79
73106;BME280;61559;50.476;15.588;2024-02-16T03:17:09;97909.91;;;5.09;95.74
73106;BME280;61559;50.476;15.588;2024-02-16T03:19:40;97907.13;;;5.03;95.74
73106;BME280;61559;50.476;15.588;2024-02-16T03:22:12;97905.77;;;4.97;95.67
73106;BME280;61559;50.476;15.588;2024-02-16T03:24:43;97905.36;;;4.91;95.50
73106;BME280;61559;50.476;15.588;2024-02-16T03:27:15;97904.71;;;4.84;95.28
73106;BME280;61559;50.476;15.588;2024-02-16T03:29:47;97900.39;;;4.78;95.45
73106;BME280;61559;50.476;15.588;2024-02-16T03:32:18;97896.46;;;4.72;95.55
73106;BME280;61559;50.476;15.588;2024-02-16T03:34:50;97892.04;;;4.65;95.34
73106;BME280;61559;50.476;15.588;2024-02-16T03:37:22;97894.85;;;4.58;95.34
73106;BME280;61559;50.476;15.588;2024-02-16T03:39:53;97896.49;;;4.51;95.31
73106;BME280;61559;50.476;15.588;2024-02-16T03:42:24;97896.85;;;4.45;95.21
73106;BME280;61559;50.476;15.588;2024-02-16T03:44:56;97900.63;;;4.38;95.17
73106;BME280;61559;50.476;15.588;2024-02-16T03:47:28;97898.31;;;4.31;95.21
73106;BME280;61559;50.476;15.588;2024-02-16T03:49:59;97896.78;;;4.24;95.09
73106;BME280;61559;50.476;15.588;2024-02-16T03:52:31;97895.09;;;4.18;95.02
73106;BME280;61559;50.476;15.588;2024-02-16T03:55:03;97895.24;;;4.13;95.04
73106;BME280;61559;50.476;15.588;2024-02-16T03:57:35;97892.14;;;4.09;95.19
73106;BME280;61559;50.476;15.588;2024-02-16T04:00:08;97893.35;;;4.04;95.11
73106;BME280;61559;50.476;15.588;2024-02-16T04:02:40;97888.91;;;3.99;95.15
73106;BME280;61559;50.476;15.588;2024-02-16T04:05:11;97891.71;;;3.95;95.08
73106;BME280;61559;50.476;15.588;2024-02-16T04:07:42;97891.96;;;3.89;94.93
73106;BME280;61559;50.476;15.588;2024-02-16T04:10:14;97896.48;;;3.85;95.02
73106;BME280;61559;50.476;15.588;2024-02-16T04:12:46;97894.44;;;3.81;95.17
73106;BME280;61559;50.476;15.588;2024-02-16T04:15:17;97898.30;;;3.77;95.07
73106;BME280;61559;50.476;15.588;2024-02-16T04:17:49;97895.59;;;3.73;95.12
73106;BME280;61559;50.476;15.588;2024-02-16T04:20:21;97893.45;;;3.70;95.12
73106;BME280;61559;50.476;15.588;2024-02-16T04:22:52;97888.85;;;3.65;94.96
73106;BME280;61559;50.476;15.588;2024-02-16T04:25:24;97883.34;;;3.60;94.91
73106;BME280;61559;50.476;15.588;2024-02-16T04:27:55;97879.41;;;3.57;95.11
73106;BME280;61559;50.476;15.588;2024-02-16T04:30:30;97882.77;;;3.55;95.33
73106;BME280;61559;50.476;15.588;2024-02-16T04:33:01;97879.23;;;3.51;95.25
73106;BME280;61559;50.476;15.588;2024-02-16T04:35:34;97885.30;;;3.48;95.38
73106;BME280;61559;50.476;15.588;2024-02-16T04:38:04;97885.71;;;3.45;95.48
73106;BME280;61559;50.476;15.588;2024-02-16T04:40:38;97881.92;;;3.40;95.42
73106;BME280;61559;50.476;15.588;2024-02-16T04:43:10;97879.78;;;3.38;95.41
73106;BME280;61559;50.476;15.588;2024-02-16T04:45:39;97880.49;;;3.35;95.56
73106;BME280;61559;50.476;15.588;2024-02-16T04:48:11;97878.80;;;3.32;95.59
73106;BME280;61559;50.476;15.588;2024-02-16T04:50:43;97881.29;;;3.29;95.60
73106;BME280;61559;50.476;15.588;2024-02-16T04:53:14;97878.52;;;3.26;95.56
73106;BME280;61559;50.476;15.588;2024-02-16T04:55:48;97877.79;;;3.21;95.43
73106;BME280;61559;50.476;15.588;2024-02-16T04:58:19;97884.77;;;3.19;95.57
73106;BME280;61559;50.476;15.588;2024-02-16T05:00:51;97884.34;;;3.18;95.68
73106;BME280;61559;50.476;15.588;2024-02-16T05:03:23;97884.13;;;3.15;95.63
73106;BME280;61559;50.476;15.588;2024-02-16T05:05:55;97879.19;;;3.13;95.64
73106;BME280;61559;50.476;15.588;2024-02-16T05:08:27;97877.91;;;3.11;95.64
73106;BME280;61559;50.476;15.588;2024-02-16T05:10:56;97875.36;;;3.11;95.93
73106;BME280;61559;50.476;15.588;2024-02-16T05:13:28;97878.90;;;3.07;95.78
73106;BME280;61559;50.476;15.588;2024-02-16T05:15:59;97876.95;;;3.03;95.62
73106;BME280;61559;50.476;15.588;2024-02-16T05:18:31;97875.66;;;3.00;95.75
73106;BME280;61559;50.476;15.588;2024-02-16T05:21:02;97879.33;;;2.99;95.52
73106;BME280;61559;50.476;15.588;2024-02-16T05:23:32;97877.09;;;2.99;95.75
73106;BME280;61559;50.476;15.588;2024-02-16T05:26:03;97879.02;;;2.97;95.92
73106;BME280;61559;50.476;15.588;2024-02-16T05:28:34;97878.14;;;2.96;95.90
73106;BME280;61559;50.476;15.588;2024-02-16T05:31:15;97876.45;;;2.94;95.73
73106;BME280;61559;50.476;15.588;2024-02-16T05:33:49;97879.84;;;2.91;95.75
73106;BME280;61559;50.476;15.588;2024-02-16T05:36:22;97886.45;;;2.89;95.71
73106;BME280;61559;50.476;15.588;2024-02-16T05:38:55;97890.34;;;2.85;95.47
73106;BME280;61559;50.476;15.588;2024-02-16T05:41:30;97888.74;;;2.82;95.36
73106;BME280;61559;50.476;15.588;2024-02-16T05:44:01;97888.99;;;2.80;95.60
73106;BME280;61559;50.476;15.588;2024-02-16T05:46:33;97892.27;;;2.77;95.57
73106;BME280;61559;50.476;15.588;2024-02-16T05:49:04;97900.16;;;2.76;95.61
73106;BME280;61559;50.476;15.588;2024-02-16T05:51:37;97901.62;;;2.74;95.64
73106;BME280;61559;50.476;15.588;2024-02-16T05:54:09;97899.38;;;2.72;95.74
73106;BME280;61559;50.476;15.588;2024-02-16T05:56:42;97893.56;;;2.71;95.53
73106;BME280;61559;50.476;15.588;2024-02-16T05:59:14;97892.84;;;2.69;95.48
73106;BME280;61559;50.476;15.588;2024-02-16T06:01:46;97890.98;;;2.65;95.37
73106;BME280;61559;50.476;15.588;2024-02-16T06:04:18;97892.95;;;2.62;95.34
73106;BME280;61559;50.476;15.588;2024-02-16T06:06:49;97896.55;;;2.59;95.35
73106;BME280;61559;50.476;15.588;2024-02-16T06:09:22;97894.67;;;2.57;95.49
73106;BME280;61559;50.476;15.588;2024-02-16T06:11:53;97893.14;;;2.55;95.63
73106;BME280;61559;50.476;15.588;2024-02-16T06:14:25;97896.43;;;2.54;95.59
73106;BME280;61559;50.476;15.588;2024-02-16T06:16:56;97896.67;;;2.51;95.61
73106;BME280;61559;50.476;15.588;2024-02-16T06:19:25;97901.85;;;2.51;95.73
73106;BME280;61559;50.476;15.588;2024-02-16T06:21:58;97904.89;;;2.49;95.93
73106;BME280;61559;50.476;15.588;2024-02-16T06:24:29;97902.20;;;2.49;95.93
73106;BME280;61559;50.476;15.588;2024-02-16T06:27:00;97904.19;;;2.50;95.99
73106;BME280;61559;50.476;15.588;2024-02-16T06:29:31;97905.58;;;2.52;96.06
73106;BME280;61559;50.476;15.588;2024-02-16T06:32:03;97908.58;;;2.53;95.95
73106;BME280;61559;50.476;15.588;2024-02-16T06:34:34;97912.28;;;2.52;95.75
73106;BME280;61559;50.476;15.588;2024-02-16T06:37:06;97915.18;;;2.53;95.66
73106;BME280;61559;50.476;15.588;2024-02-16T06:39:37;97921.45;;;2.53;95.63
73106;BME280;61559;50.476;15.588;2024-02-16T06:42:08;97924.10;;;2.54;95.74
73106;BME280;61559;50.476;15.588;2024-02-16T06:44:42;97928.80;;;2.57;95.71
73106;BME280;61559;50.476;15.588;2024-02-16T06:47:12;97926.72;;;2.60;95.93
73106;BME280;61559;50.476;15.588;2024-02-16T06:49:43;97928.79;;;2.62;96.00
73106;BME280;61559;50.476;15.588;2024-02-16T06:52:16;97930.61;;;2.66;95.84
73106;BME280;61559;50.476;15.588;2024-02-16T06:54:48;97933.25;;;2.67;95.81
73106;BME280;61559;50.476;15.588;2024-02-16T06:57:19;97933.23;;;2.69;95.77
73106;BME280;61559;50.476;15.588;2024-02-16T06:59:51;97936.50;;;2.73;95.75
73106;BME280;61559;50.476;15.588;2024-02-16T07:02:23;97938.98;;;2.78;95.92
73106;BME280;61559;50.476;15.588;2024-02-16T14:15:51;97824.38;;;11.86;69.38
73106;BME280;61559;50.476;15.588;2024-02-16T14:18:23;97821.41;;;11.90;69.52
73106;BME280;61559;50.476;15.588;2024-02-16T14:21:04;97822.27;;;11.88;69.39
73106;BME280;61559;50.476;15.588;2024-02-16T14:23:35;97821.75;;;11.86;69.27
73106;BME280;61559;50.476;15.588;2024-02-16T14:26:07;97823.23;;;11.84;68.65
73106;BME280;61559;50.476;15.588;2024-02-16T14:28:38;97823.88;;;11.82;69.04
73106;BME280;61559;50.476;15.588;2024-02-16T14:31:09;97827.59;;;11.80;69.27
73106;BME280;61559;50.476;15.588;2024-02-16T14:33:41;97830.02;;;11.78;69.52
73106;BME280;61559;50.476;15.588;2024-02-16T14:36:13;97830.71;;;11.77;69.77
73106;BME280;61559;50.476;15.588;2024-02-16T14:38:44;97831.30;;;11.77;69.69
73106;BME280;61559;50.476;15.588;2024-02-16T14:41:15;97828.16;;;11.77;69.72
73106;BME280;61559;50.476;15.588;2024-02-16T14:43:47;97825.17;;;11.76;70.02
73106;BME280;61559;50.476;15.588;2024-02-16T14:46:18;97827.48;;;11.75;70.23
73106;BME280;61559;50.476;15.588;2024-02-16T14:48:50;97828.48;;;11.74;69.93
73106;BME280;61559;50.476;15.588;2024-02-16T14:51:23;97829.92;;;11.74;70.15
73106;BME280;61559;50.476;15.588;2024-02-16T14:53:54;97827.80;;;11.72;69.74
73106;BME280;61559;50.476;15.588;2024-02-16T14:56:25;97830.14;;;11.72;70.79
73106;BME280;61559;50.476;15.588;2024-02-16T14:58:57;97833.57;;;11.69;71.15
73106;BME280;61559;50.476;15.588;2024-02-16T15:01:28;97838.62;;;11.65;71.37
73106;BME280;61559;50.476;15.588;2024-02-16T15:04:00;97837.25;;;11.59;71.80
73106;BME280;61559;50.476;15.588;2024-02-16T15:06:32;97838.98;;;11.54;72.34
73106;BME280;61559;50.476;15.588;2024-02-16T15:09:06;97837.86;;;11.50;72.89
73106;BME280;61559;50.476;15.588;2024-02-16T15:11:37;97835.36;;;11.46;73.31
73106;BME280;61559;50.476;15.588;2024-02-16T15:14:09;97837.33;;;11.40;73.48
73106;BME280;61559;50.476;15.588;2024-02-16T15:16:43;97835.48;;;11.33;73.70
73106;BME280;61559;50.476;15.588;2024-02-16T15:19:14;97834.33;;;11.25;74.23
73106;BME280;61559;50.476;15.588;2024-02-16T15:21:45;97836.48;;;11.15;74.26
73106;BME280;61559;50.476;15.588;2024-02-16T15:24:17;97843.22;;;11.04;74.76
73106;BME280;61559;50.476;15.588;2024-02-16T15:26:48;97846.50;;;10.94;75.19
73106;BME280;61559;50.476;15.588;2024-02-16T15:29:23;97849.98;;;10.85;75.28
73106;BME280;61559;50.476;15.588;2024-02-16T15:31:54;97855.05;;;10.75;75.55
73106;BME280;61559;50.476;15.588;2024-02-16T15:34:25;97854.17;;;10.67;75.93
73106;BME280;61559;50.476;15.588;2024-02-16T15:36:57;97855.48;;;10.58;76.12
73106;BME280;61559;50.476;15.588;2024-02-16T15:39:28;97857.38;;;10.48;76.24
73106;BME280;61559;50.476;15.588;2024-02-16T15:42:00;97861.41;;;10.38;76.51
73106;BME280;61559;50.476;15.588;2024-02-16T15:44:31;97865.90;;;10.30;76.75
73106;BME280;61559;50.476;15.588;2024-02-16T15:47:00;97868.55;;;10.22;77.20
73106;BME280;61559;50.476;15.588;2024-02-16T15:49:32;97864.95;;;10.12;77.48
73106;BME280;61559;50.476;15.588;2024-02-16T15:52:03;97867.17;;;10.07;77.84
73106;BME280;61559;50.476;15.588;2024-02-16T15:54:34;97866.94;;;9.97;78.03
73106;BME280;61559;50.476;15.588;2024-02-16T15:57:06;97869.73;;;9.86;78.56
73106;BME280;61559;50.476;15.588;2024-02-16T15:59:37;97871.36;;;9.74;79.22
73106;BME280;61559;50.476;15.588;2024-02-16T16:02:08;97875.22;;;9.65;79.41
73106;BME280;61559;50.476;15.588;2024-02-16T16:04:39;97879.78;;;9.56;79.58
73106;BME280;61559;50.476;15.588;2024-02-16T16:07:10;97878.89;;;9.46;80.34
73106;BME280;61559;50.476;15.588;2024-02-16T16:09:44;97873.82;;;9.37;80.54
73106;BME280;61559;50.476;15.588;2024-02-16T16:12:15;97874.22;;;9.31;80.75
73106;BME280;61559;50.476;15.588;2024-02-16T16:14:46;97873.16;;;9.24;80.86
73106;BME280;61559;50.476;15.588;2024-02-16T16:17:18;97878.47;;;9.12;81.40
73106;BME280;61559;50.476;15.588;2024-02-16T16:19:49;97877.45;;;8.99;82.11
73106;BME280;61559;50.476;15.588;2024-02-16T16:22:20;97879.00;;;8.87;82.53
73106;BME280;61559;50.476;15.588;2024-02-16T16:24:51;97876.41;;;8.77;82.79
73106;BME280;61559;50.476;15.588;2024-02-16T16:27:23;97873.58;;;8.72;83.06
73106;BME280;61559;50.476;15.588;2024-02-16T16:29:54;97866.41;;;8.68;83.13
73106;BME280;61559;50.476;15.588;2024-02-16T16:32:26;97865.55;;;8.66;83.18
73106;BME280;61559;50.476;15.588;2024-02-16T16:34:55;97867.16;;;8.62;83.32
73106;BME280;61559;50.476;15.588;2024-02-16T16:37:27;97872.14;;;8.53;83.85
73106;BME280;61559;50.476;15.588;2024-02-16T16:39:58;97880.30;;;8.47;84.29
73106;BME280;61559;50.476;15.588;2024-02-16T16:42:31;97889.15;;;8.42;84.54
73106;BME280;61559;50.476;15.588;2024-02-16T16:45:03;97891.63;;;8.38;84.39
73106;BME280;61559;50.476;15.588;2024-02-16T16:47:34;97900.98;;;8.34;84.39
73106;BME280;61559;50.476;15.588;2024-02-16T16:50:07;97904.20;;;8.30;84.50
73106;BME280;61559;50.476;15.588;2024-02-16T16:52:40;97906.42;;;8.27;84.51
73106;BME280;61559;50.476;15.588;2024-02-16T16:55:12;97915.51;;;8.22;84.71
73106;BME280;61559;50.476;15.588;2024-02-16T16:57:44;97916.17;;;8.19;85.03
73106;BME280;61559;50.476;15.588;2024-02-16T17:00:16;97921.06;;;8.15;85.02
73106;BME280;61559;50.476;15.588;2024-02-16T17:02:48;97923.52;;;8.12;85.19
73106;BME280;61559;50.476;15.588;2024-02-16T17:05:17;97925.80;;;8.07;85.44
73106;BME280;61559;50.476;15.588;2024-02-16T17:07:49;97924.45;;;7.97;85.76
73106;BME280;61559;50.476;15.588;2024-02-16T17:10:20;97925.55;;;7.92;85.85
73106;BME280;61559;50.476;15.588;2024-02-16T17:12:51;97926.16;;;7.88;86.03
73106;BME280;61559;50.476;15.588;2024-02-16T17:15:22;97932.59;;;7.82;85.88
73106;BME280;61559;50.476;15.588;2024-02-16T17:17:54;97934.52;;;7.77;86.26
73106;BME280;61559;50.476;15.588;2024-02-16T17:20:26;97932.42;;;7.70;86.47
73106;BME280;61559;50.476;15.588;2024-02-16T17:22:57;97938.81;;;7.64;86.46
73106;BME280;61559;50.476;15.588;2024-02-16T17:25:29;97937.61;;;7.57;86.20
73106;BME280;61559;50.476;15.588;2024-02-16T17:28:00;97941.35;;;7.53;86.45
73106;BME280;61559;50.476;15.588;2024-02-16T17:30:32;97947.39;;;7.50;86.69
73106;BME280;61559;50.476;15.588;2024-02-16T17:33:05;97950.73;;;7.48;86.79
73106;BME280;61559;50.476;15.588;2024-02-16T17:35:36;97953.68;;;7.46;86.87
73106;BME280;61559;50.476;15.588;2024-02-16T17:38:09;97958.67;;;7.44;86.81
73106;BME280;61559;50.476;15.588;2024-02-16T17:40:40;97958.20;;;7.41;86.85
73106;BME280;61559;50.476;15.588;2024-02-16T17:43:11;97958.98;;;7.36;86.81
73106;BME280;61559;50.476;15.588;2024-02-16T17:45:43;97965.52;;;7.32;86.87
73106;BME280;61559;50.476;15.588;2024-02-16T17:48:14;97969.61;;;7.28;87.03
73106;BME280;61559;50.476;15.588;2024-02-16T17:50:46;97968.48;;;7.24;87.00
73106;BME280;61559;50.476;15.588;2024-02-16T17:53:17;97973.85;;;7.19;86.99
73106;BME280;61559;50.476;15.588;2024-02-16T17:55:49;97975.13;;;7.15;86.98
73106;BME280;61559;50.476;15.588;2024-02-16T17:58:20;97977.38;;;7.10;87.08
73106;BME280;61559;50.476;15.588;2024-02-16T18:00:52;97977.73;;;7.04;87.11
73106;BME280;61559;50.476;15.588;2024-02-16T18:03:23;97980.77;;;6.99;87.27
73106;BME280;61559;50.476;15.588;2024-02-16T18:05:55;97983.95;;;6.93;87.52
73106;BME280;61559;50.476;15.588;2024-02-16T18:08:28;97986.73;;;6.86;87.67
73106;BME280;61559;50.476;15.588;2024-02-16T18:11:20;97983.39;;;6.83;87.82
73106;BME280;61559;50.476;15.588;2024-02-16T18:14:52;97984.52;;;6.78;87.83
73106;BME280;61559;50.476;15.588;2024-02-16T18:17:34;97986.17;;;6.75;87.92
73106;BME280;61559;50.476;15.588;2024-02-16T18:20:04;97986.55;;;6.72;88.00
73106;BME280;61559;50.476;15.588;2024-02-16T18:22:38;97985.05;;;6.68;88.05
73106;BME280;61559;50.476;15.588;2024-02-16T18:25:10;97985.13;;;6.66;87.98
73106;BME280;61559;50.476;15.588;2024-02-16T18:27:41;97986.06;;;6.63;88.12
73106;BME280;61559;50.476;15.588;2024-02-16T18:30:13;97983.98;;;6.61;87.97
73106;BME280;61559;50.476;15.588;2024-02-16T18:32:45;97984.61;;;6.59;88.18
73106;BME280;61559;50.476;15.588;2024-02-16T18:35:14;97986.11;;;6.57;88.20
73106;BME280;61559;50.476;15.588;2024-02-16T18:37:46;97986.98;;;6.55;88.25
73106;BME280;61559;50.476;15.588;2024-02-16T18:40:17;97987.86;;;6.55;88.52
73106;BME280;61559;50.476;15.588;2024-02-16T18:42:48;97988.53;;;6.54;88.65
73106;BME280;61559;50.476;15.588;2024-02-16T18:45:23;97986.23;;;6.53;88.67
73106;BME280;61559;50.476;15.588;2024-02-16T18:47:55;97984.24;;;6.52;88.72
73106;BME280;61559;50.476;15.588;2024-02-16T18:50:26;97986.87;;;6.51;88.78
73106;BME280;61559;50.476;15.588;2024-02-16T18:52:57;97988.41;;;6.50;88.89
73106;BME280;61559;50.476;15.588;2024-02-16T18:55:29;97986.67;;;6.49;89.09
73106;BME280;61559;50.476;15.588;2024-02-16T18:58:00;97984.88;;;6.48;89.06
73106;BME280;61559;50.476;15.588;2024-02-16T19:00:31;97985.19;;;6.49;89.10
73106;BME280;61559;50.476;15.588;2024-02-16T19:03:02;97990.16;;;6.49;89.12
73106;BME280;61559;50.476;15.588;2024-02-16T19:05:34;97992.15;;;6.49;89.20
73106;BME280;61559;50.476;15.588;2024-02-16T19:08:03;97990.30;;;6.48;89.23
73106;BME280;61559;50.476;15.588;2024-02-16T19:10:39;97986.66;;;6.44;89.16
73106;BME280;61559;50.476;15.588;2024-02-16T19:13:11;97989.22;;;6.43;89.14
73106;BME280;61559;50.476;15.588;2024-02-16T19:15:41;97986.05;;;6.42;89.32
73106;BME280;61559;50.476;15.588;2024-02-16T19:18:12;97987.16;;;6.39;89.49
73106;BME280;61559;50.476;15.588;2024-02-16T19:20:42;97986.95;;;6.39;89.50
73106;BME280;61559;50.476;15.588;2024-02-16T19:23:13;97984.82;;;6.35;89.64
73106;BME280;61559;50.476;15.588;2024-02-16T19:25:46;97988.37;;;6.33;89.68
73106;BME280;61559;50.476;15.588;2024-02-16T19:28:17;97993.61;;;6.29;89.72
73106;BME280;61559;50.476;15.588;2024-02-16T19:30:46;97991.70;;;6.25;89.98
73106;BME280;61559;50.476;15.588;2024-02-16T19:33:17;97996.63;;;6.21;90.14
73106;BME280;61559;50.476;15.588;2024-02-16T19:35:49;97999.86;;;6.19;90.15
73106;BME280;61559;50.476;15.588;2024-02-16T19:38:23;98002.23;;;6.17;90.25
73106;BME280;61559;50.476;15.588;2024-02-16T19:40:54;98000.48;;;6.18;90.34
73106;BME280;61559;50.476;15.588;2024-02-16T19:43:36;98004.83;;;6.18;90.38
73106;BME280;61559;50.476;15.588;2024-02-16T19:46:08;98007.64;;;6.19;90.44
73106;BME280;61559;50.476;15.588;2024-02-16T19:48:39;98011.67;;;6.20;90.39
73106;BME280;61559;50.476;15.588;2024-02-16T19:51:10;98009.16;;;6.20;90.51
73106;BME280;61559;50.476;15.588;2024-02-16T19:53:41;98009.77;;;6.20;90.45
73106;BME280;61559;50.476;15.588;2024-02-16T19:56:11;98008.86;;;6.21;90.50
73106;BME280;61559;50.476;15.588;2024-02-16T19:58:42;98011.94;;;6.19;90.48
73106;BME280;61559;50.476;15.588;2024-02-16T20:01:13;98010.45;;;6.18;90.54
73106;BME280;61559;50.476;15.588;2024-02-16T20:03:43;98010.09;;;6.18;90.70
73106;BME280;61559;50.476;15.588;2024-02-16T20:06:16;98010.98;;;6.16;90.62
73106;BME280;61559;50.476;15.588;2024-02-16T20:08:48;98014.80;;;6.17;90.72
73106;BME280;61559;50.476;15.588;2024-02-16T20:11:19;98010.67;;;6.15;90.84
73106;BME280;61559;50.476;15.588;2024-02-16T20:13:51;98015.77;;;6.11;90.84
73106;BME280;61559;50.476;15.588;2024-02-16T20:16:24;98011.80;;;6.07;90.84
73106;BME280;61559;50.476;15.588;2024-02-16T20:18:55;98013.08;;;6.02;90.92
73106;BME280;61559;50.476;15.588;2024-02-16T20:21:27;98021.15;;;6.02;91.11
73106;BME280;61559;50.476;15.588;2024-02-16T20:23:57;98021.10;;;6.02;91.29
73106;BME280;61559;50.476;15.588;2024-02-16T20:26:30;98018.29;;;6.02;91.32
73106;BME280;61559;50.476;15.588;2024-02-16T20:29:02;98017.21;;;6.03;91.41
73106;BME280;61559;50.476;15.588;2024-02-16T20:31:33;98019.91;;;6.04;91.34
73106;BME280;61559;50.476;15.588;2024-02-16T20:34:08;98023.89;;;6.06;91.41
73106;BME280;61559;50.476;15.588;2024-02-16T20:36:39;98021.20;;;6.05;91.32